KBMT/BMT METAR and TAF weather

Enter ICAO airport designator
Station Type Date Time Source
KBMT METAR 2018/09/21 23:15 UTC NOAA

KBMT 212315Z AUTO 04006KT 10SM RA SCT041 BKN049 BKN060 27/26 A2997 RMK AO2 LTG DSNT NE E AND SW T02720256


Station Type Date Time Source
KBMT Decoded METAR 2018/09/21 23:15 UTC NOAA

Station name not available
Sep 21, 2018 - 07:15 PM EDT / 2018.09.21 2315 UTC
Wind: from the NE (040 degrees) at 7 MPH (6 KT):0
Visibility: 10 mile(s):0
Sky conditions: mostly cloudy
Weather: rain; Lightning observed
Temperature: 81.0 F (27.2 C)
Dew Point: 78.1 F (25.6 C)
Relative Humidity: 90%
Pressure (altimeter): 29.97 in. Hg (1014 hPa)
ob: KBMT 212315Z AUTO 04006KT 10SM RA SCT041 BKN049 BKN060 27/26 A2997 RMK AO2 LTG DSNT NE E AND SW T02720256
cycle: 23

Station Type Date Time Source
KBMT TAF UTC NOAA

Error!


Example: see airport list